Time;durP1;ratioP1;P1;durP2;ratioP2;P2;SDS_P1;SDS_P2;PMS_P1;PMS_P2;Temp;Humidity;BMP_temperature;BMP_pressure;BME280_temperature;BME280_humidity;BME280_pressure;Samples;Min_cycle;Max_cycle;Signal;HPM_P1;HPM_P2
2019/06/12 00:00:44;;;;;;;11.6;10.5;;;;;;;;;;;;;
2019/06/12 00:03:09;;;;;;;10.5;9.6;;;;;;;;;;;;;
2019/06/12 00:05:34;;;;;;;11;10;;;;;;;;;;;;;
2019/06/12 00:07:59;;;;;;;12.2;10.7;;;;;;;;;;;;;
2019/06/12 00:10:24;;;;;;;12.5;11.2;;;;;;;;;;;;;
2019/06/12 00:12:49;;;;;;;10.9;10;;;;;;;;;;;;;
2019/06/12 00:15:14;;;;;;;11;10;;;;;;;;;;;;;
2019/06/12 00:17:40;;;;;;;12.5;11.2;;;;;;;;;;;;;
2019/06/12 00:20:05;;;;;;;12.2;11;;;;;;;;;;;;;
2019/06/12 00:22:30;;;;;;;13.3;12.1;;;;;;;;;;;;;
2019/06/12 00:24:55;;;;;;;13;11.7;;;;;;;;;;;;;
2019/06/12 00:27:20;;;;;;;12.1;11.1;;;;;;;;;;;;;
2019/06/12 00:29:45;;;;;;;13;11.8;;;;;;;;;;;;;
2019/06/12 00:32:10;;;;;;;12.4;11.3;;;;;;;;;;;;;
2019/06/12 00:34:36;;;;;;;12.6;11.3;;;;;;;;;;;;;
2019/06/12 00:37:01;;;;;;;12.8;11.5;;;;;;;;;;;;;
2019/06/12 00:39:27;;;;;;;12.5;11.2;;;;;;;;;;;;;
2019/06/12 00:41:52;;;;;;;13.2;11.8;;;;;;;;;;;;;
2019/06/12 00:44:17;;;;;;;11.5;10.5;;;;;;;;;;;;;
2019/06/12 00:46:42;;;;;;;12;10.7;;;;;;;;;;;;;
2019/06/12 00:49:07;;;;;;;11.5;10.4;;;;;;;;;;;;;
2019/06/12 00:51:32;;;;;;;10.8;9.8;;;;;;;;;;;;;
2019/06/12 00:53:58;;;;;;;12.5;11.2;;;;;;;;;;;;;
2019/06/12 00:56:23;;;;;;;13.1;11.8;;;;;;;;;;;;;
2019/06/12 00:58:48;;;;;;;11.6;10.6;;;;;;;;;;;;;
2019/06/12 01:01:13;;;;;;;11.5;10.5;;;;;;;;;;;;;
2019/06/12 01:03:38;;;;;;;12.7;11.4;;;;;;;;;;;;;
2019/06/12 01:06:03;;;;;;;11.4;10.3;;;;;;;;;;;;;
2019/06/12 01:08:28;;;;;;;11.9;10.8;;;;;;;;;;;;;
2019/06/12 01:10:53;;;;;;;12.4;11.2;;;;;;;;;;;;;
2019/06/12 01:13:19;;;;;;;11.5;10.4;;;;;;;;;;;;;
2019/06/12 01:15:44;;;;;;;11.2;10.1;;;;;;;;;;;;;
2019/06/12 01:18:11;;;;;;;11.4;10.4;;;;;;;;;;;;;
2019/06/12 01:20:36;;;;;;;12.6;11.4;;;;;;;;;;;;;
2019/06/12 01:23:02;;;;;;;12.9;11.7;;;;;;;;;;;;;
2019/06/12 01:25:27;;;;;;;12.7;11.5;;;;;;;;;;;;;
2019/06/12 01:27:52;;;;;;;13.8;12.4;;;;;;;;;;;;;
2019/06/12 01:30:17;;;;;;;12.6;11.6;;;;;;;;;;;;;
2019/06/12 01:32:42;;;;;;;13;11.8;;;;;;;;;;;;;
2019/06/12 01:35:07;;;;;;;12.7;11.5;;;;;;;;;;;;;
2019/06/12 01:37:32;;;;;;;12.9;11.6;;;;;;;;;;;;;
2019/06/12 01:39:57;;;;;;;13.3;12.2;;;;;;;;;;;;;
2019/06/12 01:42:22;;;;;;;13.6;12.4;;;;;;;;;;;;;
2019/06/12 01:44:48;;;;;;;15;13.5;;;;;;;;;;;;;
2019/06/12 01:47:14;;;;;;;13.9;12.6;;;;;;;;;;;;;
2019/06/12 01:49:39;;;;;;;14.3;13;;;;;;;;;;;;;
2019/06/12 01:52:04;;;;;;;12.6;11.5;;;;;;;;;;;;;
2019/06/12 01:54:29;;;;;;;13.3;12;;;;;;;;;;;;;
2019/06/12 01:56:55;;;;;;;14.2;12.8;;;;;;;;;;;;;
2019/06/12 01:59:20;;;;;;;13;11.8;;;;;;;;;;;;;
2019/06/12 02:01:45;;;;;;;13.6;12.3;;;;;;;;;;;;;
2019/06/12 02:04:10;;;;;;;12.9;11.8;;;;;;;;;;;;;
2019/06/12 02:06:35;;;;;;;13.3;12.2;;;;;;;;;;;;;
2019/06/12 02:09:00;;;;;;;13.1;11.9;;;;;;;;;;;;;
2019/06/12 02:11:26;;;;;;;13.7;12.3;;;;;;;;;;;;;
2019/06/12 02:13:52;;;;;;;13.1;11.8;;;;;;;;;;;;;
2019/06/12 02:16:17;;;;;;;14.2;12.3;;;;;;;;;;;;;
2019/06/12 02:18:42;;;;;;;13.4;12.2;;;;;;;;;;;;;
2019/06/12 02:21:07;;;;;;;14.1;12.8;;;;;;;;;;;;;
2019/06/12 02:23:32;;;;;;;14.4;12.9;;;;;;;;;;;;;
2019/06/12 02:25:57;;;;;;;13.5;12.2;;;;;;;;;;;;;
2019/06/12 02:28:22;;;;;;;14.9;13.3;;;;;;;;;;;;;
2019/06/12 02:30:47;;;;;;;14.8;13.3;;;;;;;;;;;;;
2019/06/12 02:33:12;;;;;;;14.3;12.9;;;;;;;;;;;;;
2019/06/12 02:35:37;;;;;;;15.3;13.7;;;;;;;;;;;;;
2019/06/12 02:38:03;;;;;;;15.6;14.1;;;;;;;;;;;;;
2019/06/12 02:40:28;;;;;;;14.5;13.1;;;;;;;;;;;;;
2019/06/12 02:42:53;;;;;;;17.3;15.6;;;;;;;;;;;;;
2019/06/12 02:45:18;;;;;;;16;14.5;;;;;;;;;;;;;
2019/06/12 02:47:43;;;;;;;15.6;14.2;;;;;;;;;;;;;
2019/06/12 02:50:08;;;;;;;16.1;14.4;;;;;;;;;;;;;
2019/06/12 02:52:34;;;;;;;15.3;13.8;;;;;;;;;;;;;
2019/06/12 02:54:59;;;;;;;16.2;14.6;;;;;;;;;;;;;
2019/06/12 02:57:24;;;;;;;16.2;14.5;;;;;;;;;;;;;
2019/06/12 02:59:49;;;;;;;15.9;14.4;;;;;;;;;;;;;
2019/06/12 03:02:14;;;;;;;17.8;16.1;;;;;;;;;;;;;
2019/06/12 03:04:39;;;;;;;17;15.3;;;;;;;;;;;;;
2019/06/12 03:07:05;;;;;;;16.9;15.3;;;;;;;;;;;;;
2019/06/12 03:09:30;;;;;;;17.5;15.8;;;;;;;;;;;;;
2019/06/12 03:11:55;;;;;;;18.3;16.6;;;;;;;;;;;;;
2019/06/12 03:14:20;;;;;;;16.9;15.2;;;;;;;;;;;;;
2019/06/12 03:16:45;;;;;;;15.2;13.9;;;;;;;;;;;;;
2019/06/12 03:19:10;;;;;;;17.5;15.9;;;;;;;;;;;;;
2019/06/12 03:21:35;;;;;;;17.7;16.1;;;;;;;;;;;;;
2019/06/12 03:26:25;;;;;;;19.1;17.2;;;;;;;;;;;;;
2019/06/12 03:28:50;;;;;;;19.2;17.5;;;;;;;;;;;;;
2019/06/12 03:31:17;;;;;;;17.4;15.9;;;;;;;;;;;;;
2019/06/12 03:33:42;;;;;;;21.1;19.1;;;;;;;;;;;;;
2019/06/12 03:36:07;;;;;;;22.6;20.5;;;;;;;;;;;;;
2019/06/12 03:38:32;;;;;;;21;19.1;;;;;;;;;;;;;
2019/06/12 03:40:57;;;;;;;18.7;17.1;;;;;;;;;;;;;
2019/06/12 03:43:22;;;;;;;21.1;19.2;;;;;;;;;;;;;
2019/06/12 03:45:48;;;;;;;19.6;17.8;;;;;;;;;;;;;
2019/06/12 03:48:14;;;;;;;21.8;19.8;;;;;;;;;;;;;
2019/06/12 03:50:39;;;;;;;19.4;17.6;;;;;;;;;;;;;
2019/06/12 03:53:04;;;;;;;20.9;19;;;;;;;;;;;;;
2019/06/12 03:55:29;;;;;;;19.7;17.8;;;;;;;;;;;;;
2019/06/12 03:57:54;;;;;;;21.5;19.4;;;;;;;;;;;;;
2019/06/12 04:02:28;;;;;;;18.6;17;;;;;;;15.42;91.20801;951.8183;;;;
2019/06/12 04:04:53;;;;;;;19.6;17.8;;;;;;;15.4;91.06641;951.8663;;;;
2019/06/12 04:07:18;;;;;;;19.6;17.8;;;;;;;15.44;91.0625;951.883;;;;
2019/06/12 04:09:44;;;;;;;19.2;17.2;;;;;;;15.44;91.0625;951.9331;;;;
2019/06/12 04:12:09;;;;;;;18.6;16.8;;;;;;;15.48;90.91797;951.8472;;;;
2019/06/12 04:14:36;;;;;;;17.8;16.2;;;;;;;15.61;90.20117;951.8027;;;;
2019/06/12 04:17:01;;;;;;;16.8;15.4;;;;;;;15.64;90.54395;951.6742;;;;
2019/06/12 04:19:26;;;;;;;17.8;16.2;;;;;;;15.67;90.01367;951.5037;;;;
2019/06/12 04:21:51;;;;;;;17.6;15.9;;;;;;;15.68;90.47168;951.5426;;;;
2019/06/12 04:24:17;;;;;;;16.7;15.1;;;;;;;15.78;89.69824;951.6495;;;;
2019/06/12 04:26:42;;;;;;;16.2;14.7;;;;;;;15.78;89.88477;951.6529;;;;
2019/06/12 04:29:07;;;;;;;17.3;15.7;;;;;;;15.82;89.75391;951.6219;;;;
2019/06/12 04:31:35;;;;;;;16.8;15.2;;;;;;;15.84;89.65527;951.5533;;;;
2019/06/12 04:34:00;;;;;;;17.5;16;;;;;;;15.77;89.70801;951.5948;;;;
2019/06/12 04:36:25;;;;;;;17.7;16.1;;;;;;;15.7;89.66992;951.579;;;;
2019/06/12 04:38:50;;;;;;;18.9;17;;;;;;;15.64;90.49805;951.5656;;;;
2019/06/12 04:41:16;;;;;;;17.8;15.9;;;;;;;15.55;90.01172;951.6532;;;;
2019/06/12 04:43:41;;;;;;;18.8;17;;;;;;;15.51;90.51855;951.7537;;;;
2019/06/12 04:46:06;;;;;;;18.7;17;;;;;;;15.49;90.29199;951.6965;;;;
2019/06/12 04:48:31;;;;;;;18.1;16.6;;;;;;;15.49;90.18652;951.6965;;;;
2019/06/12 04:50:56;;;;;;;18.7;17;;;;;;;15.5;90.14355;951.6711;;;;
2019/06/12 04:53:22;;;;;;;16.9;15.4;;;;;;;15.52;90.28711;951.5781;;;;
2019/06/12 04:55:47;;;;;;;18.6;16.8;;;;;;;15.53;89.96484;951.5909;;;;
2019/06/12 04:58:12;;;;;;;16.8;15.3;;;;;;;15.64;89.49609;951.6166;;;;
2019/06/12 05:00:37;;;;;;;18.7;17;;;;;;;15.49;90.67578;951.6071;;;;
2019/06/12 05:03:04;;;;;;;16.6;15;;;;;;;15.55;90.15332;951.5602;;;;
2019/06/12 05:05:28;;;;;;;17.8;16.2;;;;;;;15.61;90.25879;951.5761;;;;
2019/06/12 05:07:54;;;;;;;17.9;16.3;;;;;;;15.72;90.375;951.6281;;;;
2019/06/12 05:10:19;;;;;;;15.8;14.2;;;;;;;15.87;88.75195;951.5989;;;;
2019/06/12 05:12:44;;;;;;;15.8;14.3;;;;;;;16.03;87.8291;951.5767;;;;
2019/06/12 05:15:09;;;;;;;15.6;14.2;;;;;;;15.95;88.36035;951.4352;;;;
2019/06/12 05:17:34;;;;;;;16.5;15.1;;;;;;;15.91;89.31836;951.4667;;;;
2019/06/12 05:22:54;;;;;;;16.3;14.8;;;;;;;16.1;87.95996;951.5513;;;;
2019/06/12 05:25:19;;;;;;;17.4;15.8;;;;;;;16.07;88.52539;951.6124;;;;
2019/06/12 05:27:44;;;;;;;15.9;14.4;;;;;;;16.19;88.37207;951.6089;;;;
2019/06/12 05:30:09;;;;;;;18;16.2;;;;;;;16.19;88.04785;951.6508;;;;
2019/06/12 05:32:48;;;;;;;15.6;14.2;;;;;;;16.25;87.26563;951.6934;;;;
2019/06/12 05:35:13;;;;;;;17.9;16.1;;;;;;;16.21;87.38672;951.6777;;;;
2019/06/12 05:37:38;;;;;;;17.2;15.5;;;;;;;16.29;87.25098;951.6074;;;;
2019/06/12 05:40:05;;;;;;;19;17.1;;;;;;;16.14;87.62891;951.6638;;;;
2019/06/12 05:42:30;;;;;;;16.9;15.2;;;;;;;16.36;87.28711;951.7336;;;;
2019/06/12 05:44:55;;;;;;;17.7;16;;;;;;;16.45;86.35938;951.7189;;;;
2019/06/12 05:47:21;;;;;;;17.5;15.8;;;;;;;16.45;86.1377;951.7806;;;;
2019/06/12 05:49:46;;;;;;;16.7;15.3;;;;;;;16.52;86.11914;951.8429;;;;
2019/06/12 05:52:11;;;;;;;18.1;16.3;;;;;;;16.5;86.25391;951.8844;;;;
2019/06/12 05:54:36;;;;;;;18.7;17;;;;;;;16.58;85.83789;951.8345;;;;
2019/06/12 05:57:01;;;;;;;18.9;17.2;;;;;;;16.54;85.3877;951.9059;;;;
2019/06/12 05:59:26;;;;;;;18.6;16.9;;;;;;;16.65;85.04688;951.8776;;;;
2019/06/12 06:04:17;;;;;;;18.6;16.9;;;;;;;16.62;85.64844;951.6979;;;;
2019/06/12 06:06:42;;;;;;;19.7;17.8;;;;;;;16.57;85.83398;951.7079;;;;
2019/06/12 06:09:07;;;;;;;20.3;18.4;;;;;;;16.8;84.4209;951.7133;;;;
2019/06/12 06:11:33;;;;;;;20.5;18.4;;;;;;;16.66;85.2002;951.6958;;;;
2019/06/12 06:13:58;;;;;;;19.2;17.4;;;;;;;16.87;85.20508;951.6774;;;;
2019/06/12 06:16:23;;;;;;;20.1;18.2;;;;;;;16.97;84.68848;951.7325;;;;
2019/06/12 06:18:48;;;;;;;20.4;18.2;;;;;;;17.01;84.09961;951.6608;;;;
2019/06/12 06:21:13;;;;;;;20.4;18.5;;;;;;;17.11;83.70996;951.6409;;;;
2019/06/12 06:23:38;;;;;;;19.4;17.5;;;;;;;17.24;83.18457;951.6672;;;;
2019/06/12 06:26:03;;;;;;;18.4;16.6;;;;;;;17.12;83.65527;951.6555;;;;
2019/06/12 06:28:28;;;;;;;19.1;17.2;;;;;;;17.16;83.3457;951.6364;;;;
2019/06/12 06:30:54;;;;;;;20.3;18.3;;;;;;;16.98;84.30469;951.5822;;;;
2019/06/12 06:33:21;;;;;;;18.7;16.9;;;;;;;17.22;83.67188;951.6091;;;;
2019/06/12 06:35:46;;;;;;;20.7;18.7;;;;;;;17.17;83.68652;951.6242;;;;
2019/06/12 06:38:11;;;;;;;20.5;18.7;;;;;;;17.11;83.61621;951.5914;;;;
2019/06/12 06:40:36;;;;;;;20.7;18.6;;;;;;;17.07;83.79688;951.6143;;;;
2019/06/12 06:43:06;;;;;;;21.9;19.8;;;;;;;16.95;84.33301;951.5872;;;;
2019/06/12 06:45:31;;;;;;;19.1;17.4;;;;;;;17.06;84.69434;951.6541;;;;
2019/06/12 06:47:56;;;;;;;20.6;18.7;;;;;;;17.16;83.83691;951.7122;;;;
2019/06/12 06:50:21;;;;;;;21.9;20;;;;;;;17.01;84.16992;951.7242;;;;
2019/06/12 06:52:46;;;;;;;20;18.3;;;;;;;17.08;84.51074;951.6992;;;;
2019/06/12 06:55:11;;;;;;;22.9;20.9;;;;;;;17.07;84.18066;951.6763;;;;
2019/06/12 06:57:36;;;;;;;22.4;20.4;;;;;;;17.25;83.53711;951.7024;;;;
2019/06/12 07:00:01;;;;;;;24.8;22.6;;;;;;;17.25;83.375;951.774;;;;
2019/06/12 07:02:29;;;;;;;25.8;23.3;;;;;;;17.2;83.66992;951.8492;;;;
2019/06/12 07:04:54;;;;;;;24.1;21.9;;;;;;;17.32;83.08301;951.7761;;;;
2019/06/12 07:07:20;;;;;;;27.1;24.6;;;;;;;17.42;82.68262;951.7393;;;;
2019/06/12 07:09:45;;;;;;;24.3;22.1;;;;;;;17.43;82.6377;951.7901;;;;
2019/06/12 07:12:10;;;;;;;26.7;24.3;;;;;;;17.27;83.51855;951.7316;;;;
2019/06/12 07:14:35;;;;;;;25.4;23;;;;;;;17.34;83.0293;951.7111;;;;
2019/06/12 07:17:00;;;;;;;25.5;23.1;;;;;;;17.25;83.71191;951.7354;;;;
2019/06/12 07:19:26;;;;;;;24.1;21.9;;;;;;;17.44;82.88477;951.7102;;;;
2019/06/12 07:21:51;;;;;;;24.4;22;;;;;;;17.53;82.03613;951.7125;;;;
2019/06/12 07:24:17;;;;;;;24.4;22.2;;;;;;;17.5;82.36816;951.7516;;;;
2019/06/12 07:26:42;;;;;;;26.1;23.5;;;;;;;17.48;82.04883;951.7737;;;;
2019/06/12 07:29:07;;;;;;;27;24.4;;;;;;;17.36;83.14941;951.8369;;;;
2019/06/12 07:31:32;;;;;;;26.6;24.1;;;;;;;17.13;83.92383;951.8627;;;;
2019/06/12 07:33:57;;;;;;;25.8;23.3;;;;;;;17.2;83.82227;951.9694;;;;
2019/06/12 07:36:22;;;;;;;26.3;23.7;;;;;;;17.05;84.42188;952.0214;;;;
2019/06/12 07:38:47;;;;;;;24.7;22.2;;;;;;;17.18;84.30762;952.019;;;;
2019/06/12 07:41:12;;;;;;;24.6;22;;;;;;;17.07;84.86914;952.0105;;;;
2019/06/12 07:43:37;;;;;;;24.5;22;;;;;;;17.12;84.50781;952.0259;;;;
2019/06/12 07:46:03;;;;;;;27.6;24.9;;;;;;;17.23;83.70996;951.968;;;;
2019/06/12 07:48:28;;;;;;;26.1;23.6;;;;;;;17.28;83.64844;952.0483;;;;
2019/06/12 07:50:53;;;;;;;27.5;24.6;;;;;;;17.46;82.33984;952.0793;;;;
2019/06/12 07:53:18;;;;;;;28.7;25.9;;;;;;;17.19;83.35156;951.9736;;;;
2019/06/12 07:55:43;;;;;;;26.9;24.1;;;;;;;17.36;83.21973;951.93;;;;
2019/06/12 07:58:08;;;;;;;28.2;25.3;;;;;;;17.17;84.10938;951.8917;;;;
2019/06/12 08:00:33;;;;;;;27.9;25.1;;;;;;;17.29;83.52051;951.853;;;;
2019/06/12 08:03:00;;;;;;;27.9;25.1;;;;;;;17.26;83.63379;951.8456;;;;
2019/06/12 08:05:25;;;;;;;28.3;25.4;;;;;;;17.23;83.66406;951.8971;;;;
2019/06/12 08:07:51;;;;;;;27.7;24.8;;;;;;;17.11;84.57617;951.8739;;;;
2019/06/12 08:10:16;;;;;;;26.5;23.9;;;;;;;17.32;84.32227;951.8787;;;;
2019/06/12 08:12:41;;;;;;;27;24.2;;;;;;;17.35;83.69727;951.9589;;;;
2019/06/12 08:15:06;;;;;;;28.1;25.1;;;;;;;17.31;83.80566;952.024;;;;
2019/06/12 08:17:31;;;;;;;27;24.3;;;;;;;17.31;83.80566;952.0264;;;;
2019/06/12 08:19:56;;;;;;;25.9;23.3;;;;;;;17.47;83.24023;952.0053;;;;
2019/06/12 08:22:21;;;;;;;26;22.5;;;;;;;17.43;83.75781;952.067;;;;
2019/06/12 08:24:46;;;;;;;25.2;22.5;;;;;;;17.66;82.71582;952.1356;;;;
2019/06/12 08:27:11;;;;;;;25.3;22.6;;;;;;;17.7;82.4541;952.195;;;;
2019/06/12 08:29:36;;;;;;;24.1;21.4;;;;;;;18.01;81.86914;952.2679;;;;
2019/06/12 08:32:01;;;;;;;24.6;22;;;;;;;18.23;80.53809;952.3035;;;;
2019/06/12 08:34:26;;;;;;;27.5;23;;;;;;;18.03;80.94727;952.433;;;;
2019/06/12 08:36:51;;;;;;;26.7;23.9;;;;;;;17.71;82.50098;952.5269;;;;
2019/06/12 08:39:19;;;;;;;24.9;22.3;;;;;;;17.86;82.20117;952.5183;;;;
2019/06/12 08:41:44;;;;;;;26.1;23.4;;;;;;;18.06;81.60742;952.5027;;;;
2019/06/12 08:44:09;;;;;;;26.2;23.5;;;;;;;18.12;80.90527;952.5051;;;;
2019/06/12 08:46:35;;;;;;;26.8;23.9;;;;;;;18.08;81.49609;952.6942;;;;
2019/06/12 08:49:00;;;;;;;26.4;23.5;;;;;;;18.1;81.80371;952.6651;;;;
2019/06/12 08:51:25;;;;;;;27.8;23.9;;;;;;;17.96;82.03418;952.7134;;;;
2019/06/12 08:53:50;;;;;;;27.9;24.5;;;;;;;18.23;81.87402;952.7134;;;;
2019/06/12 08:56:15;;;;;;;26.5;23.8;;;;;;;18.17;81.04199;952.7592;;;;
2019/06/12 08:58:40;;;;;;;24.8;22.2;;;;;;;18.1;81.11133;952.892;;;;
2019/06/12 09:01:05;;;;;;;26.7;22.7;;;;;;;17.84;82.39746;953.0614;;;;
2019/06/12 09:03:30;;;;;;;24.4;21.9;;;;;;;17.88;81.85547;953.1286;;;;
2019/06/12 09:05:55;;;;;;;25.5;21.5;;;;;;;17.86;82.01465;953.163;;;;
2019/06/12 09:08:20;;;;;;;24.1;21.6;;;;;;;17.79;82.25977;953.1199;;;;
2019/06/12 09:10:46;;;;;;;23.9;21.4;;;;;;;17.84;82.19824;953.1404;;;;
2019/06/12 09:13:12;;;;;;;22.8;20.4;;;;;;;17.91;82.05957;953.1563;;;;
2019/06/12 09:15:37;;;;;;;24.1;21.4;;;;;;;17.75;82.52246;953.1995;;;;
2019/06/12 09:18:02;;;;;;;21.3;19.1;;;;;;;18.01;82.0791;953.2971;;;;
2019/06/12 09:20:27;;;;;;;21.3;19;;;;;;;18.21;81.41504;953.2739;;;;
2019/06/12 09:22:52;;;;;;;21.2;19;;;;;;;18.41;80.71191;953.1905;;;;
2019/06/12 09:25:17;;;;;;;19.2;17.3;;;;;;;18.69;79.45117;953.26;;;;
2019/06/12 09:27:43;;;;;;;20.2;18;;;;;;;18.6;79.53906;953.4478;;;;
2019/06/12 09:30:08;;;;;;;20.1;17.9;;;;;;;18.52;79.64258;953.491;;;;
2019/06/12 09:32:34;;;;;;;20.9;18.8;;;;;;;18.56;79.52051;953.4222;;;;
2019/06/12 09:34:59;;;;;;;18.4;16.6;;;;;;;18.56;79.55566;953.4099;;;;
2019/06/12 09:37:25;;;;;;;19.4;17.4;;;;;;;18.49;79.91797;953.4924;;;;
2019/06/12 09:39:50;;;;;;;20.8;17.9;;;;;;;18.18;80.72949;953.6001;;;;
2019/06/12 09:42:16;;;;;;;20.5;18.3;;;;;;;17.95;82.21777;953.5991;;;;
2019/06/12 09:44:41;;;;;;;20.7;18.3;;;;;;;18.05;82.05078;953.6401;;;;
2019/06/12 09:47:06;;;;;;;19.8;17.4;;;;;;;18.05;82.03906;953.7059;;;;
2019/06/12 09:49:32;;;;;;;19.6;17.7;;;;;;;18;81.08301;953.6481;;;;
2019/06/12 09:51:57;;;;;;;17.7;15.9;;;;;;;18.18;80.35254;953.6398;;;;
2019/06/12 09:54:24;;;;;;;17.9;15.5;;;;;;;18.16;80.25586;953.8483;;;;
2019/06/12 09:56:49;;;;;;;18.8;16.9;;;;;;;18;80.34375;953.9765;;;;
2019/06/12 09:59:15;;;;;;;17;15.2;;;;;;;17.98;80.50391;954.0833;;;;
2019/06/12 10:01:40;;;;;;;18;16.2;;;;;;;18.05;80.45898;954.0836;;;;
2019/06/12 10:04:05;;;;;;;19.2;17.3;;;;;;;17.83;81.10938;954.1653;;;;
2019/06/12 10:06:33;;;;;;;19.4;17.5;;;;;;;17.78;81.3457;954.2336;;;;
2019/06/12 10:08:58;;;;;;;20.5;18.4;;;;;;;17.7;81.77539;954.2908;;;;
2019/06/12 10:11:23;;;;;;;20.8;18.8;;;;;;;17.71;81.90527;954.2117;;;;
2019/06/12 10:13:48;;;;;;;21.3;19.3;;;;;;;17.55;82.26172;954.1929;;;;
2019/06/12 10:16:13;;;;;;;20;17.9;;;;;;;17.45;83.00488;954.2933;;;;
2019/06/12 10:18:38;;;;;;;18.9;16.9;;;;;;;17.33;83.4248;954.3613;;;;
2019/06/12 10:21:03;;;;;;;14.2;12.8;;;;;;;17.15;82.66504;954.6367;;;;
2019/06/12 10:23:28;;;;;;;13.7;12.1;;;;;;;16.86;83.48828;954.7418;;;;
2019/06/12 10:25:53;;;;;;;12.5;11;;;;;;;16.96;83.27344;954.7547;;;;
2019/06/12 10:28:19;;;;;;;12.1;10.7;;;;;;;16.72;83.63477;954.6931;;;;
2019/06/12 10:30:44;;;;;;;10;9.1;;;;;;;16.87;81.46875;954.7978;;;;
2019/06/12 10:33:09;;;;;;;9.3;8.4;;;;;;;16.77;82.43066;954.9077;;;;
2019/06/12 10:35:35;;;;;;;8.5;7.6;;;;;;;16.76;81.88086;954.9225;;;;
2019/06/12 10:38:00;;;;;;;8.6;7.7;;;;;;;16.78;81.57031;954.9183;;;;
2019/06/12 10:40:26;;;;;;;7.4;6.7;;;;;;;16.88;81.42383;954.9334;;;;
2019/06/12 10:42:50;;;;;;;6.6;5.9;;;;;;;16.74;81.84082;954.9835;;;;
2019/06/12 10:45:15;;;;;;;6.3;5.4;;;;;;;16.8;81.77246;955.0718;;;;
2019/06/12 10:47:42;;;;;;;5.5;4.9;;;;;;;16.71;81.87207;955.1465;;;;
2019/06/12 10:50:07;;;;;;;6.9;6.2;;;;;;;16.66;82.42188;955.1638;;;;
2019/06/12 10:52:33;;;;;;;7.4;6.2;;;;;;;16.68;82.12207;955.2261;;;;
2019/06/12 10:54:58;;;;;;;7.3;6.2;;;;;;;16.4;82.56055;955.198;;;;
2019/06/12 10:57:23;;;;;;;41;28.9;;;;;;;16.39;83.23535;955.1617;;;;
2019/06/12 10:59:48;;;;;;;15.2;11.1;;;;;;;16.52;83.14355;955.2459;;;;
2019/06/12 11:02:14;;;;;;;17.8;12.8;;;;;;;16.43;83.36035;955.3465;;;;
2019/06/12 11:04:39;;;;;;;8.3;7.2;;;;;;;16.5;82.91699;955.4435;;;;
2019/06/12 11:07:04;;;;;;;9.8;7.6;;;;;;;16.33;83.75977;955.4119;;;;
2019/06/12 11:09:29;;;;;;;7.7;6.1;;;;;;;16.44;83.81543;955.4565;;;;
2019/06/12 11:12:00;;;;;;;5.3;4.3;;;;;;;16.24;84.95508;955.3978;;;;
2019/06/12 11:14:24;;;;;;;6.2;4.9;;;;;;;16.46;85.23047;955.3027;;;;
2019/06/12 11:16:49;;;;;;;5.6;4.9;;;;;;;16.32;86.05566;955.322;;;;
2019/06/12 11:19:14;;;;;;;5.4;4.9;;;;;;;16.43;86.39258;955.3925;;;;
2019/06/12 11:21:39;;;;;;;7.9;6.2;;;;;;;16.42;86.74121;955.4964;;;;
2019/06/12 11:24:05;;;;;;;5.8;5.2;;;;;;;16.28;87.23633;955.7297;;;;
2019/06/12 11:26:30;;;;;;;12;9.9;;;;;;;16.08;87.31543;955.7223;;;;
2019/06/12 11:28:55;;;;;;;7.7;6.7;;;;;;;16.17;87.0625;955.7347;;;;
2019/06/12 11:31:20;;;;;;;5.5;5;;;;;;;16.21;87.64355;955.7498;;;;
2019/06/12 11:33:45;;;;;;;5;4.5;;;;;;;16.18;87.07813;955.9066;;;;
2019/06/12 11:36:10;;;;;;;5.9;5.4;;;;;;;16.3;86.93652;955.9719;;;;
2019/06/12 11:38:35;;;;;;;6;5.4;;;;;;;16.41;86.52734;955.9512;;;;
2019/06/12 11:41:00;;;;;;;6.5;5.8;;;;;;;16.45;85.98633;955.9484;;;;
2019/06/12 11:43:27;;;;;;;6.8;6.2;;;;;;;16.37;86.46094;955.8876;;;;
2019/06/12 11:45:52;;;;;;;7.2;6.2;;;;;;;16.37;86.75195;955.8251;;;;
2019/06/12 11:48:18;;;;;;;5.9;5.3;;;;;;;16.39;86.42871;955.8445;;;;
2019/06/12 11:50:43;;;;;;;5.1;4.4;;;;;;;16.42;84.79102;955.7824;;;;
2019/06/12 11:53:08;;;;;;;3.5;3.1;;;;;;;16.49;82.86719;955.7853;;;;
2019/06/12 11:55:33;;;;;;;3.1;2.4;;;;;;;16.41;82.33984;956.0047;;;;
2019/06/12 11:57:58;;;;;;;3.3;2.1;;;;;;;16.52;82.39551;956.2325;;;;
2019/06/12 12:00:23;;;;;;;4;2.2;;;;;;;16.4;81.5332;956.3849;;;;
2019/06/12 12:02:48;;;;;;;2.2;1.4;;;;;;;16.39;81.33398;956.2836;;;;
2019/06/12 12:05:13;;;;;;;1.6;1.5;;;;;;;16.34;80.56738;956.1041;;;;
2019/06/12 12:07:39;;;;;;;1.7;1.1;;;;;;;16.32;81.44824;955.8987;;;;
2019/06/12 12:10:04;;;;;;;3.2;1.7;;;;;;;16.34;81.89648;955.8672;;;;
2019/06/12 12:12:29;;;;;;;3.2;1.4;;;;;;;16.44;83.15039;956.0701;;;;
2019/06/12 12:14:54;;;;;;;1.7;1.6;;;;;;;16.34;82.72461;956.3541;;;;
2019/06/12 12:17:19;;;;;;;2.5;1.4;;;;;;;16.39;82.73535;956.3933;;;;
2019/06/12 12:19:44;;;;;;;2.5;1.5;;;;;;;16.43;82.05176;956.3862;;;;
2019/06/12 12:22:09;;;;;;;2;1.1;;;;;;;16.31;83.05664;956.3858;;;;
2019/06/12 12:24:36;;;;;;;1.6;1;;;;;;;16.38;82.11133;956.2708;;;;
2019/06/12 12:27:01;;;;;;;2.5;1;;;;;;;16.47;81.36035;956.4146;;;;
2019/06/12 12:29:26;;;;;;;2;0.9;;;;;;;16.59;80.42383;956.5518;;;;
2019/06/12 12:31:51;;;;;;;2.6;1;;;;;;;16.47;80.7998;956.6244;;;;
2019/06/12 12:34:16;;;;;;;1;0.8;;;;;;;16.37;82.1582;956.6319;;;;
2019/06/12 12:36:42;;;;;;;1.4;1.2;;;;;;;16.35;80.24023;956.641;;;;
2019/06/12 12:39:07;;;;;;;7;3.2;;;;;;;16.27;81.04199;956.5775;;;;
2019/06/12 12:41:32;;;;;;;9.1;5.8;;;;;;;16.32;81.35547;956.6314;;;;
2019/06/12 12:43:57;;;;;;;3.9;2.7;;;;;;;16.36;80.66406;956.4434;;;;
2019/06/12 12:46:22;;;;;;;1.7;1;;;;;;;16.45;80.21191;956.6436;;;;
2019/06/12 12:48:47;;;;;;;1.6;1.3;;;;;;;16.46;78.29004;956.6631;;;;
2019/06/12 12:51:12;;;;;;;1.3;0.9;;;;;;;16.69;77.65332;956.7408;;;;
2019/06/12 12:53:38;;;;;;;2;0.9;;;;;;;16.82;76.22949;956.8215;;;;
2019/06/12 12:56:03;;;;;;;2.1;0.8;;;;;;;16.75;75.74805;956.8736;;;;
2019/06/12 12:58:30;;;;;;;1.2;0.7;;;;;;;16.66;76.62207;956.738;;;;
2019/06/12 13:00:55;;;;;;;3.3;0.7;;;;;;;16.61;77.49902;956.8775;;;;
2019/06/12 13:03:20;;;;;;;2.1;0.7;;;;;;;16.48;76.99707;957.0051;;;;
2019/06/12 13:05:45;;;;;;;2.1;0.6;;;;;;;16.48;77.0332;956.9955;;;;
2019/06/12 13:08:10;;;;;;;2.8;0.8;;;;;;;16.33;77.7998;956.938;;;;
2019/06/12 13:10:35;;;;;;;0.7;0.5;;;;;;;16.29;77.62988;956.9146;;;;
2019/06/12 13:13:00;;;;;;;1.8;0.8;;;;;;;16.5;76.58203;956.8546;;;;
2019/06/12 13:15:26;;;;;;;1.8;0.7;;;;;;;16.41;77.78125;956.8239;;;;
2019/06/12 13:17:51;;;;;;;2;1.4;;;;;;;16.48;77.69727;956.8398;;;;
2019/06/12 13:20:16;;;;;;;2.5;1.1;;;;;;;16.57;76.75781;956.894;;;;
2019/06/12 13:22:41;;;;;;;9.5;7;;;;;;;16.41;76.49805;956.7662;;;;
2019/06/12 13:25:06;;;;;;;2.8;0.9;;;;;;;16.45;76.50195;956.7785;;;;
2019/06/12 13:27:31;;;;;;;4.2;3.3;;;;;;;16.36;77.60645;956.8309;;;;
2019/06/12 13:29:56;;;;;;;1;0.8;;;;;;;16.44;78.70605;956.8674;;;;
2019/06/12 13:32:23;;;;;;;1.6;1.2;;;;;;;16.59;76.51465;956.8694;;;;
2019/06/12 13:34:48;;;;;;;2.1;1.2;;;;;;;16.46;76.60938;956.9011;;;;
2019/06/12 13:37:13;;;;;;;2.2;1.5;;;;;;;16.59;75.85059;956.8948;;;;
2019/06/12 13:39:38;;;;;;;1.3;0.8;;;;;;;16.57;76.54785;956.9969;;;;
2019/06/12 13:42:05;;;;;;;1.3;0.8;;;;;;;16.5;75.34473;957.0198;;;;
2019/06/12 13:44:30;;;;;;;1.1;0.8;;;;;;;16.37;77.26953;956.9947;;;;
2019/06/12 13:46:57;;;;;;;4.1;1;;;;;;;16.38;77.20313;956.954;;;;
2019/06/12 13:49:22;;;;;;;2.1;0.8;;;;;;;16.68;75.35449;956.8865;;;;
2019/06/12 13:51:49;;;;;;;2;1.1;;;;;;;16.68;75.72559;956.8744;;;;
2019/06/12 13:54:14;;;;;;;2.5;0.9;;;;;;;17.02;76.47363;956.9149;;;;
2019/06/12 13:56:39;;;;;;;1;0.7;;;;;;;17.14;76.4375;956.9608;;;;
2019/06/12 13:59:04;;;;;;;0.9;0.8;;;;;;;17.12;74.83203;956.9501;;;;
2019/06/12 14:01:29;;;;;;;1.6;0.9;;;;;;;17.13;74.8457;957.0406;;;;
2019/06/12 14:03:54;;;;;;;6.1;3.5;;;;;;;17.25;73.94336;956.9594;;;;
2019/06/12 14:06:21;;;;;;;2.5;1.2;;;;;;;17.4;73.52344;956.8934;;;;
2019/06/12 14:08:46;;;;;;;2;0.9;;;;;;;17.28;72.68555;956.903;;;;
2019/06/12 14:11:12;;;;;;;1.6;0.8;;;;;;;17.31;74.24609;956.9272;;;;
2019/06/12 14:13:37;;;;;;;2.9;1.2;;;;;;;17.42;72.77832;956.9715;;;;
2019/06/12 14:16:04;;;;;;;1.9;0.8;;;;;;;17.13;73.8877;957.0653;;;;
2019/06/12 14:18:29;;;;;;;1.2;1;;;;;;;17.21;74.20605;957.1385;;;;
2019/06/12 14:20:54;;;;;;;2.4;1.3;;;;;;;17.27;73.29199;957.2261;;;;
2019/06/12 14:23:20;;;;;;;1.2;0.7;;;;;;;17.53;71.70801;957.1892;;;;
2019/06/12 14:25:45;;;;;;;1.6;0.7;;;;;;;17.73;72.05762;957.1892;;;;
2019/06/12 14:28:10;;;;;;;0.9;0.7;;;;;;;17.9;71.0459;957.1205;;;;
2019/06/12 14:30:36;;;;;;;1.5;0.9;;;;;;;18.17;68.94434;957.0789;;;;
2019/06/12 14:33:02;;;;;;;1;0.8;;;;;;;18.16;69.30762;957.0627;;;;
2019/06/12 14:35:27;;;;;;;1.8;0.8;;;;;;;17.71;69.5498;957.0089;;;;
2019/06/12 14:37:54;;;;;;;1.1;0.8;;;;;;;17.71;70.63965;956.8542;;;;
2019/06/12 14:40:19;;;;;;;2.2;0.9;;;;;;;17.5;70.81543;956.86;;;;
2019/06/12 14:42:44;;;;;;;1.4;0.9;;;;;;;17.51;71.29883;956.8508;;;;
2019/06/12 14:45:09;;;;;;;1.4;0.8;;;;;;;17.53;70.35156;956.8661;;;;
2019/06/12 14:47:35;;;;;;;1.4;0.8;;;;;;;17.68;69.41699;957.0051;;;;
2019/06/12 14:50:00;;;;;;;1.9;0.8;;;;;;;17.39;72.16602;957.1489;;;;
2019/06/12 14:52:25;;;;;;;1;0.7;;;;;;;17.49;70.9209;957.1905;;;;
2019/06/12 14:54:50;;;;;;;1;0.7;;;;;;;17.38;71.27734;957.084;;;;
2019/06/12 14:57:16;;;;;;;1.4;0.7;;;;;;;17.17;72.0498;957.0303;;;;
2019/06/12 14:59:41;;;;;;;0.7;0.7;;;;;;;17.1;72.34082;957.0433;;;;
2019/06/12 15:02:06;;;;;;;1.4;0.8;;;;;;;17.16;71.46289;957.045;;;;
2019/06/12 15:04:31;;;;;;;0.9;0.7;;;;;;;17.35;70.10254;957.0728;;;;
2019/06/12 15:06:57;;;;;;;1.2;0.7;;;;;;;17.71;69.52832;957.1597;;;;
2019/06/12 15:09:22;;;;;;;1.5;0.7;;;;;;;17.82;67.46289;957.1817;;;;
2019/06/12 15:11:48;;;;;;;0.7;0.6;;;;;;;17.99;67.23047;957.0731;;;;
2019/06/12 15:14:13;;;;;;;1;0.8;;;;;;;17.89;66.40918;957.0086;;;;
2019/06/12 15:16:38;;;;;;;0.9;0.7;;;;;;;17.95;65.59766;957.0779;;;;
2019/06/12 15:19:04;;;;;;;0.8;0.6;;;;;;;17.85;64.86914;956.9645;;;;